sensor_id;sensor_type;location;lat;lon;timestamp;pressure;altitude;pressure_sealevel;temperature;humidity
33554;BME280;19885;42.208;24.952;2022-08-07T00:02:04;99498.47;;;24.75;64.84
33554;BME280;19885;42.208;24.952;2022-08-07T00:04:31;99497.44;;;24.78;65.10
33554;BME280;19885;42.208;24.952;2022-08-07T00:06:57;99488.69;;;24.76;64.20
33554;BME280;19885;42.208;24.952;2022-08-07T00:09:23;99499.22;;;24.62;65.79
33554;BME280;19885;42.208;24.952;2022-08-07T00:11:49;99489.84;;;24.70;64.68
33554;BME280;19885;42.208;24.952;2022-08-07T00:14:15;99488.31;;;24.66;65.62
33554;BME280;19885;42.208;24.952;2022-08-07T00:16:41;99461.66;;;24.51;64.14
33554;BME280;19885;42.208;24.952;2022-08-07T00:19:09;99484.94;;;24.47;64.21
33554;BME280;19885;42.208;24.952;2022-08-07T00:21:35;99486.72;;;24.47;66.11
33554;BME280;19885;42.208;24.952;2022-08-07T00:24:01;99488.63;;;24.45;64.88
33554;BME280;19885;42.208;24.952;2022-08-07T00:26:29;99487.09;;;24.41;65.10
33554;BME280;19885;42.208;24.952;2022-08-07T00:28:55;99484.69;;;24.36;66.39
33554;BME280;19885;42.208;24.952;2022-08-07T00:31:21;99478.69;;;24.48;65.04
33554;BME280;19885;42.208;24.952;2022-08-07T00:33:49;99480.47;;;24.48;64.72
33554;BME280;19885;42.208;24.952;2022-08-07T00:36:14;99484.59;;;24.38;65.52
33554;BME280;19885;42.208;24.952;2022-08-07T00:38:43;99486.72;;;24.16;65.25
33554;BME280;19885;42.208;24.952;2022-08-07T00:41:09;99488.22;;;23.54;67.19
33554;BME280;19885;42.208;24.952;2022-08-07T00:43:37;99489.19;;;23.36;68.33
33554;BME280;19885;42.208;24.952;2022-08-07T00:46:03;99478.44;;;23.20;68.18
33554;BME280;19885;42.208;24.952;2022-08-07T00:48:29;99480.66;;;23.12;69.02
33554;BME280;19885;42.208;24.952;2022-08-07T00:50:56;99476.84;;;23.35;68.17
33554;BME280;19885;42.208;24.952;2022-08-07T00:53:22;99485.03;;;23.48;68.33
33554;BME280;19885;42.208;24.952;2022-08-07T00:55:50;99482.41;;;23.29;68.52
33554;BME280;19885;42.208;24.952;2022-08-07T00:58:18;99484.16;;;23.47;67.36
33554;BME280;19885;42.208;24.952;2022-08-07T01:00:44;99473.69;;;23.61;68.07
33554;BME280;19885;42.208;24.952;2022-08-07T01:03:10;99476.50;;;23.41;67.37
33554;BME280;19885;42.208;24.952;2022-08-07T01:05:36;99473.00;;;23.58;68.11
33554;BME280;19885;42.208;24.952;2022-08-07T01:08:02;99478.03;;;23.79;67.09
33554;BME280;19885;42.208;24.952;2022-08-07T01:10:28;99467.09;;;23.51;67.39
33554;BME280;19885;42.208;24.952;2022-08-07T01:12:53;99457.72;;;23.61;67.08
33554;BME280;19885;42.208;24.952;2022-08-07T01:15:20;99481.72;;;23.08;68.37
33554;BME280;19885;42.208;24.952;2022-08-07T01:17:46;99489.16;;;23.19;68.58
33554;BME280;19885;42.208;24.952;2022-08-07T01:20:12;99477.81;;;23.32;68.20
33554;BME280;19885;42.208;24.952;2022-08-07T01:22:40;99474.31;;;23.32;68.12
33554;BME280;19885;42.208;24.952;2022-08-07T01:25:08;99477.91;;;23.14;68.36
33554;BME280;19885;42.208;24.952;2022-08-07T01:27:35;99474.28;;;22.81;69.46
33554;BME280;19885;42.208;24.952;2022-08-07T01:30:02;99472.72;;;22.39;71.49
33554;BME280;19885;42.208;24.952;2022-08-07T01:32:28;99461.88;;;22.07;72.89
33554;BME280;19885;42.208;24.952;2022-08-07T01:34:55;99470.28;;;22.16;72.71
33554;BME280;19885;42.208;24.952;2022-08-07T01:37:21;99467.53;;;21.99;72.94
33554;BME280;19885;42.208;24.952;2022-08-07T01:39:50;99456.00;;;22.00;73.49
33554;BME280;19885;42.208;24.952;2022-08-07T01:42:16;99424.78;;;21.86;72.98
33554;BME280;19885;42.208;24.952;2022-08-07T01:44:43;99458.44;;;22.23;72.43
33554;BME280;19885;42.208;24.952;2022-08-07T01:47:09;99463.22;;;22.52;71.35
33554;BME280;19885;42.208;24.952;2022-08-07T01:49:36;99424.81;;;22.05;72.19
33554;BME280;19885;42.208;24.952;2022-08-07T01:52:03;99456.66;;;22.05;72.37
33554;BME280;19885;42.208;24.952;2022-08-07T01:54:35;99467.53;;;22.55;71.37
33554;BME280;19885;42.208;24.952;2022-08-07T01:57:27;99438.91;;;22.61;70.73
33554;BME280;19885;42.208;24.952;2022-08-07T02:00:05;99433.34;;;22.47;70.88
33554;BME280;19885;42.208;24.952;2022-08-07T02:02:49;99450.59;;;22.76;69.62
33554;BME280;19885;42.208;24.952;2022-08-07T02:05:22;99428.47;;;22.76;69.57
33554;BME280;19885;42.208;24.952;2022-08-07T02:07:51;99472.56;;;22.61;70.35
33554;BME280;19885;42.208;24.952;2022-08-07T02:10:21;99456.13;;;22.72;70.16
33554;BME280;19885;42.208;24.952;2022-08-07T02:12:48;99462.72;;;22.63;70.39
33554;BME280;19885;42.208;24.952;2022-08-07T02:15:19;99455.91;;;22.57;70.35
33554;BME280;19885;42.208;24.952;2022-08-07T02:17:46;99460.94;;;22.26;71.32
33554;BME280;19885;42.208;24.952;2022-08-07T02:20:15;99441.41;;;21.90;72.18
33554;BME280;19885;42.208;24.952;2022-08-07T02:22:43;99453.28;;;21.81;73.08
33554;BME280;19885;42.208;24.952;2022-08-07T02:25:13;99435.22;;;21.71;72.86
33554;BME280;19885;42.208;24.952;2022-08-07T02:27:41;99456.88;;;21.80;73.58
33554;BME280;19885;42.208;24.952;2022-08-07T02:30:08;99426.88;;;21.60;73.08
33554;BME280;19885;42.208;24.952;2022-08-07T02:32:35;99432.34;;;21.37;74.26
33554;BME280;19885;42.208;24.952;2022-08-07T02:35:04;99406.09;;;21.10;74.90
33554;BME280;19885;42.208;24.952;2022-08-07T02:37:32;99426.25;;;21.14;74.86
33554;BME280;19885;42.208;24.952;2022-08-07T02:39:59;99446.66;;;21.33;74.70
33554;BME280;19885;42.208;24.952;2022-08-07T02:42:28;99466.91;;;21.74;74.38
33554;BME280;19885;42.208;24.952;2022-08-07T02:44:55;99459.97;;;21.51;74.78
33554;BME280;19885;42.208;24.952;2022-08-07T02:47:21;99457.41;;;21.29;75.82
33554;BME280;19885;42.208;24.952;2022-08-07T02:49:47;99459.78;;;21.36;75.36
33554;BME280;19885;42.208;24.952;2022-08-07T02:52:18;99463.47;;;21.52;74.67
33554;BME280;19885;42.208;24.952;2022-08-07T02:54:47;99467.81;;;21.93;73.44
33554;BME280;19885;42.208;24.952;2022-08-07T02:57:15;99463.59;;;21.89;73.33
33554;BME280;19885;42.208;24.952;2022-08-07T02:59:46;99464.09;;;21.77;73.74
33554;BME280;19885;42.208;24.952;2022-08-07T03:02:15;99469.03;;;21.66;74.15
33554;BME280;19885;42.208;24.952;2022-08-07T03:04:43;99467.53;;;21.99;73.23
33554;BME280;19885;42.208;24.952;2022-08-07T03:07:09;99471.00;;;22.01;72.91
33554;BME280;19885;42.208;24.952;2022-08-07T03:09:36;99458.06;;;21.93;72.84
33554;BME280;19885;42.208;24.952;2022-08-07T03:12:03;99460.66;;;22.14;72.25
33554;BME280;19885;42.208;24.952;2022-08-07T03:14:31;99461.09;;;22.05;72.00
33554;BME280;19885;42.208;24.952;2022-08-07T03:17:02;99471.50;;;22.09;72.22
33554;BME280;19885;42.208;24.952;2022-08-07T03:19:28;99478.91;;;21.82;73.09
33554;BME280;19885;42.208;24.952;2022-08-07T03:21:55;99475.88;;;21.91;73.04
33554;BME280;19885;42.208;24.952;2022-08-07T03:24:21;99473.00;;;21.76;73.31
33554;BME280;19885;42.208;24.952;2022-08-07T03:26:49;99425.81;;;21.64;73.32
33554;BME280;19885;42.208;24.952;2022-08-07T03:29:17;99429.81;;;21.33;74.20
33554;BME280;19885;42.208;24.952;2022-08-07T03:31:45;99492.13;;;21.64;74.82
33554;BME280;19885;42.208;24.952;2022-08-07T03:34:15;99484.81;;;21.89;73.34
33554;BME280;19885;42.208;24.952;2022-08-07T03:36:42;99442.22;;;21.72;73.55
33554;BME280;19885;42.208;24.952;2022-08-07T03:39:11;99437.28;;;21.64;73.66
33554;BME280;19885;42.208;24.952;2022-08-07T03:41:39;99431.25;;;21.61;73.63
33554;BME280;19885;42.208;24.952;2022-08-07T03:44:05;99489.72;;;21.98;73.50
33554;BME280;19885;42.208;24.952;2022-08-07T03:46:32;99492.91;;;21.86;73.96
33554;BME280;19885;42.208;24.952;2022-08-07T03:48:59;99497.03;;;21.73;74.51
33554;BME280;19885;42.208;24.952;2022-08-07T03:51:26;99454.53;;;21.54;74.28
33554;BME280;19885;42.208;24.952;2022-08-07T03:53:53;99444.72;;;21.36;74.86
33554;BME280;19885;42.208;24.952;2022-08-07T03:56:21;99443.16;;;21.71;73.78
33554;BME280;19885;42.208;24.952;2022-08-07T03:58:48;99481.19;;;22.10;73.70
33554;BME280;19885;42.208;24.952;2022-08-07T04:01:18;99466.41;;;22.05;73.48
33554;BME280;19885;42.208;24.952;2022-08-07T04:03:48;99447.47;;;22.12;72.83
33554;BME280;19885;42.208;24.952;2022-08-07T04:06:35;99492.53;;;22.32;72.66
33554;BME280;19885;42.208;24.952;2022-08-07T04:09:10;99494.09;;;22.36;72.73
33554;BME280;19885;42.208;24.952;2022-08-07T04:11:40;99504.81;;;22.35;73.42
33554;BME280;19885;42.208;24.952;2022-08-07T04:14:06;99465.88;;;22.15;73.37
33554;BME280;19885;42.208;24.952;2022-08-07T04:16:35;99496.06;;;22.33;73.12
33554;BME280;19885;42.208;24.952;2022-08-07T04:19:16;99503.00;;;22.35;73.51
33554;BME280;19885;42.208;24.952;2022-08-07T04:22:28;99468.50;;;22.17;73.96
33554;BME280;19885;42.208;24.952;2022-08-07T04:25:04;99489.72;;;22.35;73.57
33554;BME280;19885;42.208;24.952;2022-08-07T04:27:39;99495.31;;;22.29;73.90
33554;BME280;19885;42.208;24.952;2022-08-07T04:30:07;99445.16;;;22.05;73.22
33554;BME280;19885;42.208;24.952;2022-08-07T04:32:37;99480.47;;;22.25;73.47
33554;BME280;19885;42.208;24.952;2022-08-07T04:35:07;99480.13;;;22.33;73.28
33554;BME280;19885;42.208;24.952;2022-08-07T04:38:11;99478.59;;;22.27;73.95
33554;BME280;19885;42.208;24.952;2022-08-07T04:40:42;99504.50;;;22.41;73.64
33554;BME280;19885;42.208;24.952;2022-08-07T04:43:10;99502.78;;;22.40;74.21
33554;BME280;19885;42.208;24.952;2022-08-07T04:51:45;99521.91;;;22.66;73.01
33554;BME280;19885;42.208;24.952;2022-08-07T04:57:46;99518.00;;;22.55;74.08
33554;BME280;19885;42.208;24.952;2022-08-07T05:00:19;99479.25;;;22.32;73.59
33554;BME280;19885;42.208;24.952;2022-08-07T05:11:06;99534.44;;;23.17;71.16
33554;BME280;19885;42.208;24.952;2022-08-07T05:13:38;99554.22;;;23.29;71.12
33554;BME280;19885;42.208;24.952;2022-08-07T05:16:09;99549.59;;;23.34;71.29
33554;BME280;19885;42.208;24.952;2022-08-07T05:18:44;99553.81;;;23.38;70.72
33554;BME280;19885;42.208;24.952;2022-08-07T09:37:39;99530.34;;;30.59;38.21
33554;BME280;19885;42.208;24.952;2022-08-07T10:41:50;99474.88;;;32.74;32.06
33554;BME280;19885;42.208;24.952;2022-08-07T10:45:23;99475.13;;;33.20;31.84
33554;BME280;19885;42.208;24.952;2022-08-07T10:52:04;99466.16;;;33.29;30.37
33554;BME280;19885;42.208;24.952;2022-08-07T11:00:06;99454.72;;;32.87;29.35
33554;BME280;19885;42.208;24.952;2022-08-07T11:02:57;99455.84;;;32.85;30.86
33554;BME280;19885;42.208;24.952;2022-08-07T11:10:41;99434.25;;;32.94;28.52
33554;BME280;19885;42.208;24.952;2022-08-07T13:35:25;99432.94;;;32.51;34.24
33554;BME280;19885;42.208;24.952;2022-08-07T13:38:34;99431.22;;;32.50;33.98
33554;BME280;19885;42.208;24.952;2022-08-07T13:41:16;99434.22;;;32.16;35.07
33554;BME280;19885;42.208;24.952;2022-08-07T13:43:46;99433.78;;;32.11;35.21
33554;BME280;19885;42.208;24.952;2022-08-07T13:46:15;99436.63;;;32.19;34.99
33554;BME280;19885;42.208;24.952;2022-08-07T13:48:48;99404.78;;;32.04;34.64
33554;BME280;19885;42.208;24.952;2022-08-07T13:51:15;99415.59;;;32.13;34.51
33554;BME280;19885;42.208;24.952;2022-08-07T13:53:50;99411.19;;;32.03;34.99
33554;BME280;19885;42.208;24.952;2022-08-07T13:56:20;99415.72;;;32.02;34.30
33554;BME280;19885;42.208;24.952;2022-08-07T13:58:47;99443.25;;;32.46;34.05
33554;BME280;19885;42.208;24.952;2022-08-07T14:01:33;99472.47;;;32.71;34.58
33554;BME280;19885;42.208;24.952;2022-08-07T14:04:07;99453.97;;;32.26;38.91
33554;BME280;19885;42.208;24.952;2022-08-07T14:06:39;99490.28;;;30.98;43.41
33554;BME280;19885;42.208;24.952;2022-08-07T14:09:08;99472.50;;;30.20;44.79
33554;BME280;19885;42.208;24.952;2022-08-07T14:11:44;99496.94;;;30.06;46.13
33554;BME280;19885;42.208;24.952;2022-08-07T14:14:14;99474.88;;;29.67;48.39
33554;BME280;19885;42.208;24.952;2022-08-07T14:16:42;99493.53;;;29.69;47.85
33554;BME280;19885;42.208;24.952;2022-08-07T14:19:30;99485.38;;;29.71;47.38
33554;BME280;19885;42.208;24.952;2022-08-07T14:27:12;99428.25;;;28.99;48.75
33554;BME280;19885;42.208;24.952;2022-08-07T14:29:46;99502.94;;;29.52;48.48
33554;BME280;19885;42.208;24.952;2022-08-07T14:32:15;99513.03;;;29.49;48.50
33554;BME280;19885;42.208;24.952;2022-08-07T14:34:44;99518.28;;;29.39;48.59
33554;BME280;19885;42.208;24.952;2022-08-07T14:37:15;99493.91;;;29.06;49.37
33554;BME280;19885;42.208;24.952;2022-08-07T14:39:43;99542.63;;;29.25;49.28
33554;BME280;19885;42.208;24.952;2022-08-07T14:42:11;99539.94;;;29.25;50.88
33554;BME280;19885;42.208;24.952;2022-08-07T14:44:42;99523.69;;;29.03;50.65
33554;BME280;19885;42.208;24.952;2022-08-07T14:47:11;99509.06;;;29.07;51.15
33554;BME280;19885;42.208;24.952;2022-08-07T14:49:38;99510.19;;;29.16;50.19
33554;BME280;19885;42.208;24.952;2022-08-07T14:52:05;99531.63;;;29.28;50.33
33554;BME280;19885;42.208;24.952;2022-08-07T14:54:33;99538.91;;;29.39;50.01
33554;BME280;19885;42.208;24.952;2022-08-07T14:57:01;99534.97;;;29.32;49.89
33554;BME280;19885;42.208;24.952;2022-08-07T14:59:33;99523.75;;;29.14;50.45
33554;BME280;19885;42.208;24.952;2022-08-07T15:02:09;99534.19;;;29.19;50.36
33554;BME280;19885;42.208;24.952;2022-08-07T15:04:44;99531.75;;;29.27;50.04
33554;BME280;19885;42.208;24.952;2022-08-07T15:09:48;99487.44;;;29.21;49.89
33554;BME280;19885;42.208;24.952;2022-08-07T15:12:18;99523.72;;;29.61;50.03
33554;BME280;19885;42.208;24.952;2022-08-07T15:14:52;99523.47;;;29.64;48.05
33554;BME280;19885;42.208;24.952;2022-08-07T15:17:25;99506.44;;;29.77;46.59
33554;BME280;19885;42.208;24.952;2022-08-07T15:19:58;99508.16;;;29.89;47.17
33554;BME280;19885;42.208;24.952;2022-08-07T15:22:29;99511.84;;;29.99;46.72
33554;BME280;19885;42.208;24.952;2022-08-07T15:24:57;99512.81;;;29.87;47.00
33554;BME280;19885;42.208;24.952;2022-08-07T15:27:28;99504.28;;;30.04;46.32
33554;BME280;19885;42.208;24.952;2022-08-07T15:30:01;99477.88;;;29.87;46.35
33554;BME280;19885;42.208;24.952;2022-08-07T15:32:32;99500.75;;;30.14;46.69
33554;BME280;19885;42.208;24.952;2022-08-07T15:34:58;99472.50;;;30.09;46.90
33554;BME280;19885;42.208;24.952;2022-08-07T15:37:33;99480.81;;;30.28;46.73
33554;BME280;19885;42.208;24.952;2022-08-07T15:40:03;99502.47;;;30.38;46.60
33554;BME280;19885;42.208;24.952;2022-08-07T15:45:15;99491.56;;;30.28;45.48
33554;BME280;19885;42.208;24.952;2022-08-07T15:48:21;99502.44;;;30.04;46.14
33554;BME280;19885;42.208;24.952;2022-08-07T15:50:49;99468.81;;;29.77;46.79
33554;BME280;19885;42.208;24.952;2022-08-07T15:53:22;99509.63;;;29.82;46.44
33554;BME280;19885;42.208;24.952;2022-08-07T15:55:59;99518.91;;;29.78;47.02
33554;BME280;19885;42.208;24.952;2022-08-07T15:58:47;99494.16;;;29.61;47.16
33554;BME280;19885;42.208;24.952;2022-08-07T16:01:22;99476.63;;;29.34;47.33
33554;BME280;19885;42.208;24.952;2022-08-07T16:03:52;99523.56;;;29.52;47.84
33554;BME280;19885;42.208;24.952;2022-08-07T16:08:57;99531.75;;;29.50;46.55
33554;BME280;19885;42.208;24.952;2022-08-07T16:17:31;99530.63;;;29.77;47.03
33554;BME280;19885;42.208;24.952;2022-08-07T16:20:28;99528.31;;;29.83;47.48
33554;BME280;19885;42.208;24.952;2022-08-07T16:23:15;99448.91;;;29.44;46.33
33554;BME280;19885;42.208;24.952;2022-08-07T16:28:55;99539.56;;;29.88;46.09
33554;BME280;19885;42.208;24.952;2022-08-07T16:31:38;99540.59;;;29.75;47.45
33554;BME280;19885;42.208;24.952;2022-08-07T16:34:17;99534.81;;;29.57;47.64
33554;BME280;19885;42.208;24.952;2022-08-07T16:37:12;99552.50;;;29.48;48.75
33554;BME280;19885;42.208;24.952;2022-08-07T16:50:37;99568.72;;;27.61;58.79
33554;BME280;19885;42.208;24.952;2022-08-07T16:55:51;99569.94;;;26.90;58.51
33554;BME280;19885;42.208;24.952;2022-08-07T16:58:25;99567.19;;;27.04;59.08
33554;BME280;19885;42.208;24.952;2022-08-07T17:01:15;99564.03;;;26.84;58.17
33554;BME280;19885;42.208;24.952;2022-08-07T17:04:02;99580.25;;;26.53;61.75
33554;BME280;19885;42.208;24.952;2022-08-07T17:09:43;99562.53;;;26.10;64.03
33554;BME280;19885;42.208;24.952;2022-08-07T17:12:16;99572.50;;;26.06;63.99
33554;BME280;19885;42.208;24.952;2022-08-07T17:20:30;99569.22;;;26.01;63.62
33554;BME280;19885;42.208;24.952;2022-08-07T17:26:31;99565.00;;;26.55;62.06
33554;BME280;19885;42.208;24.952;2022-08-07T17:28:42;99569.09;;;26.47;61.60
33554;BME280;19885;42.208;24.952;2022-08-07T17:31:17;99541.00;;;25.54;65.01
33554;BME280;19885;42.208;24.952;2022-08-07T17:33:58;99585.81;;;25.78;65.08
33554;BME280;19885;42.208;24.952;2022-08-07T17:36:30;99585.53;;;25.53;65.81
33554;BME280;19885;42.208;24.952;2022-08-07T17:39:03;99582.78;;;25.55;65.78
33554;BME280;19885;42.208;24.952;2022-08-07T17:50:17;99581.03;;;25.83;64.57
33554;BME280;19885;42.208;24.952;2022-08-07T17:53:06;99595.53;;;25.79;65.18
33554;BME280;19885;42.208;24.952;2022-08-07T17:55:54;99597.72;;;25.73;65.46
33554;BME280;19885;42.208;24.952;2022-08-07T18:00:58;99591.31;;;25.30;66.22
33554;BME280;19885;42.208;24.952;2022-08-07T18:03:34;99601.06;;;25.15;66.97
33554;BME280;19885;42.208;24.952;2022-08-07T18:06:10;99590.88;;;25.22;67.28
33554;BME280;19885;42.208;24.952;2022-08-07T18:14:03;99611.59;;;24.70;69.58
33554;BME280;19885;42.208;24.952;2022-08-07T18:16:42;99620.75;;;24.82;67.99
33554;BME280;19885;42.208;24.952;2022-08-07T18:19:15;99616.28;;;24.82;67.56
33554;BME280;19885;42.208;24.952;2022-08-07T18:21:58;99615.13;;;24.70;67.26
33554;BME280;19885;42.208;24.952;2022-08-07T18:24:33;99625.69;;;24.72;67.46
33554;BME280;19885;42.208;24.952;2022-08-07T18:35:35;99628.63;;;24.67;67.40
33554;BME280;19885;42.208;24.952;2022-08-07T18:43:13;99649.56;;;24.58;67.90
33554;BME280;19885;42.208;24.952;2022-08-07T18:46:01;99644.97;;;24.61;67.84
33554;BME280;19885;42.208;24.952;2022-08-07T18:48:41;99643.47;;;25.04;65.88
33554;BME280;19885;42.208;24.952;2022-08-07T18:53:57;99666.28;;;24.94;66.09
33554;BME280;19885;42.208;24.952;2022-08-07T18:56:36;99655.44;;;25.28;65.25
33554;BME280;19885;42.208;24.952;2022-08-07T18:59:28;99673.69;;;25.52;63.81
33554;BME280;19885;42.208;24.952;2022-08-07T19:02:09;99648.47;;;25.41;65.15
33554;BME280;19885;42.208;24.952;2022-08-07T19:10:12;99646.91;;;25.06;64.86
33554;BME280;19885;42.208;24.952;2022-08-07T19:12:57;99597.22;;;24.24;67.03
33554;BME280;19885;42.208;24.952;2022-08-07T19:15:43;99691.63;;;24.53;68.11
33554;BME280;19885;42.208;24.952;2022-08-07T19:18:44;99677.53;;;24.34;68.92
33554;BME280;19885;42.208;24.952;2022-08-07T19:23:51;99691.44;;;24.56;68.80
33554;BME280;19885;42.208;24.952;2022-08-07T19:26:19;99670.97;;;24.73;67.81
33554;BME280;19885;42.208;24.952;2022-08-07T19:28:53;99697.88;;;25.17;66.05
33554;BME280;19885;42.208;24.952;2022-08-07T19:31:25;99681.44;;;25.25;65.25
33554;BME280;19885;42.208;24.952;2022-08-07T19:33:54;99682.72;;;25.33;65.36
33554;BME280;19885;42.208;24.952;2022-08-07T19:36:23;99685.69;;;25.44;65.34
33554;BME280;19885;42.208;24.952;2022-08-07T19:38:52;99679.25;;;25.48;65.01
33554;BME280;19885;42.208;24.952;2022-08-07T19:41:23;99680.25;;;25.62;65.03
33554;BME280;19885;42.208;24.952;2022-08-07T19:43:52;99682.97;;;24.82;67.15
33554;BME280;19885;42.208;24.952;2022-08-07T19:46:22;99700.63;;;24.50;69.22
33554;BME280;19885;42.208;24.952;2022-08-07T19:48:55;99688.72;;;24.40;69.71
33554;BME280;19885;42.208;24.952;2022-08-07T19:51:23;99673.03;;;24.51;69.28
33554;BME280;19885;42.208;24.952;2022-08-07T19:53:56;99698.38;;;25.08;67.55
33554;BME280;19885;42.208;24.952;2022-08-07T19:56:23;99680.84;;;25.20;66.48
33554;BME280;19885;42.208;24.952;2022-08-07T19:58:52;99694.28;;;25.34;66.07
33554;BME280;19885;42.208;24.952;2022-08-07T20:01:18;99689.59;;;25.37;66.22
33554;BME280;19885;42.208;24.952;2022-08-07T20:03:45;99689.78;;;25.34;66.12
33554;BME280;19885;42.208;24.952;2022-08-07T20:06:13;99699.25;;;25.56;66.14
33554;BME280;19885;42.208;24.952;2022-08-07T20:08:40;99698.41;;;25.39;66.56
33554;BME280;19885;42.208;24.952;2022-08-07T20:11:12;99698.75;;;25.49;66.17
33554;BME280;19885;42.208;24.952;2022-08-07T20:13:44;99666.47;;;25.22;66.67
33554;BME280;19885;42.208;24.952;2022-08-07T20:16:15;99720.22;;;24.66;69.48
33554;BME280;19885;42.208;24.952;2022-08-07T20:18:43;99713.56;;;24.41;70.28
33554;BME280;19885;42.208;24.952;2022-08-07T20:21:10;99706.88;;;24.66;68.74
33554;BME280;19885;42.208;24.952;2022-08-07T20:23:42;99710.50;;;24.98;67.11
33554;BME280;19885;42.208;24.952;2022-08-07T20:26:09;99712.31;;;25.13;67.23
33554;BME280;19885;42.208;24.952;2022-08-07T20:28:38;99701.66;;;25.13;66.78
33554;BME280;19885;42.208;24.952;2022-08-07T20:31:15;99708.47;;;25.19;66.76
33554;BME280;19885;42.208;24.952;2022-08-07T20:33:45;99724.38;;;25.20;66.88
33554;BME280;19885;42.208;24.952;2022-08-07T20:36:14;99721.75;;;24.88;67.72
33554;BME280;19885;42.208;24.952;2022-08-07T20:38:42;99706.66;;;24.02;70.36
33554;BME280;19885;42.208;24.952;2022-08-07T20:41:07;99711.22;;;23.65;71.91
33554;BME280;19885;42.208;24.952;2022-08-07T20:43:34;99705.31;;;23.41;72.41
33554;BME280;19885;42.208;24.952;2022-08-07T20:46:01;99714.72;;;23.84;70.85
33554;BME280;19885;42.208;24.952;2022-08-07T20:48:31;99692.53;;;23.83;70.42
33554;BME280;19885;42.208;24.952;2022-08-07T20:51:00;99723.69;;;23.81;70.82
33554;BME280;19885;42.208;24.952;2022-08-07T20:53:26;99733.31;;;23.67;71.32
33554;BME280;19885;42.208;24.952;2022-08-07T20:55:56;99734.03;;;23.70;70.89
33554;BME280;19885;42.208;24.952;2022-08-07T20:58:25;99735.34;;;23.43;71.78
33554;BME280;19885;42.208;24.952;2022-08-07T21:00:54;99698.66;;;23.31;71.37
33554;BME280;19885;42.208;24.952;2022-08-07T21:03:23;99735.34;;;23.43;71.52
33554;BME280;19885;42.208;24.952;2022-08-07T21:06:02;99724.41;;;23.49;71.01
33554;BME280;19885;42.208;24.952;2022-08-07T21:08:57;99741.53;;;23.44;71.64
33554;BME280;19885;42.208;24.952;2022-08-07T21:11:28;99726.16;;;23.50;70.83
33554;BME280;19885;42.208;24.952;2022-08-07T21:13:56;99746.44;;;23.53;70.20
33554;BME280;19885;42.208;24.952;2022-08-07T21:16:30;99729.56;;;23.15;71.53
33554;BME280;19885;42.208;24.952;2022-08-07T21:18:58;99753.38;;;23.18;71.71
33554;BME280;19885;42.208;24.952;2022-08-07T21:21:30;99737.31;;;23.19;71.64
33554;BME280;19885;42.208;24.952;2022-08-07T21:24:12;99734.66;;;23.19;71.50
33554;BME280;19885;42.208;24.952;2022-08-07T21:27:00;99747.81;;;23.22;71.67
33554;BME280;19885;42.208;24.952;2022-08-07T21:29:43;99746.66;;;23.48;70.89
33554;BME280;19885;42.208;24.952;2022-08-07T21:32:18;99745.66;;;24.03;69.06
33554;BME280;19885;42.208;24.952;2022-08-07T21:35:07;99707.34;;;24.07;67.78
33554;BME280;19885;42.208;24.952;2022-08-07T21:37:34;99736.44;;;24.10;67.19
33554;BME280;19885;42.208;24.952;2022-08-07T21:40:17;99726.91;;;24.41;65.63
33554;BME280;19885;42.208;24.952;2022-08-07T21:42:47;99700.75;;;23.62;68.62
33554;BME280;19885;42.208;24.952;2022-08-07T21:45:32;99735.59;;;23.74;69.09
33554;BME280;19885;42.208;24.952;2022-08-07T21:48:18;99714.94;;;23.44;70.04
33554;BME280;19885;42.208;24.952;2022-08-07T21:50:54;99737.78;;;23.48;69.97
33554;BME280;19885;42.208;24.952;2022-08-07T21:53:34;99726.16;;;23.50;69.68
33554;BME280;19885;42.208;24.952;2022-08-07T22:01:22;99717.03;;;22.80;72.38
33554;BME280;19885;42.208;24.952;2022-08-07T22:04:00;99738.97;;;22.85;72.24
33554;BME280;19885;42.208;24.952;2022-08-07T22:06:41;99741.22;;;23.31;69.95
33554;BME280;19885;42.208;24.952;2022-08-07T22:09:12;99753.91;;;22.87;72.29
33554;BME280;19885;42.208;24.952;2022-08-07T22:11:43;99740.84;;;22.62;73.18
33554;BME280;19885;42.208;24.952;2022-08-07T22:14:11;99746.41;;;22.56;73.36
33554;BME280;19885;42.208;24.952;2022-08-07T22:16:44;99750.25;;;22.49;73.14
33554;BME280;19885;42.208;24.952;2022-08-07T22:24:37;99739.59;;;22.71;72.23
33554;BME280;19885;42.208;24.952;2022-08-07T22:27:27;99666.47;;;22.02;73.10
